createdAt,value
2023-06-11T00:00:31.340Z,20.30
2023-06-11T00:02:58.707Z,20.30
2023-06-11T00:05:26.128Z,20.30
2023-06-11T00:07:53.363Z,20.20
2023-06-11T00:10:20.021Z,20.10
2023-06-11T00:12:46.780Z,20.20
2023-06-11T00:15:13.625Z,20.20
2023-06-11T00:17:40.984Z,20.20
2023-06-11T00:20:12.572Z,20.30
2023-06-11T00:22:40.609Z,20.20
2023-06-11T00:25:09.572Z,20.20
2023-06-11T00:27:36.475Z,20.30
2023-06-11T00:30:05.603Z,20.30
2023-06-11T00:32:34.073Z,20.30
2023-06-11T00:35:01.544Z,20.20
2023-06-11T00:37:32.014Z,20.20
2023-06-11T00:39:58.756Z,20.20
2023-06-11T00:42:25.632Z,20.20
2023-06-11T00:44:52.902Z,20.20
2023-06-11T00:47:20.275Z,20.20
2023-06-11T00:49:47.739Z,20.10
2023-06-11T00:52:16.800Z,20.20
2023-06-11T00:54:43.935Z,20.10
2023-06-11T00:57:11.518Z,20.10
2023-06-11T00:59:39.893Z,20.10
2023-06-11T01:02:23.089Z,20.10
2023-06-11T01:04:58.625Z,20.00
2023-06-11T01:07:34.520Z,19.90
2023-06-11T01:10:01.561Z,19.90
2023-06-11T01:12:28.831Z,19.80
2023-06-11T01:14:55.794Z,19.70
2023-06-11T01:17:51.826Z,19.70
2023-06-11T01:20:26.395Z,19.60
2023-06-11T01:23:17.716Z,19.70
2023-06-11T01:26:09.777Z,19.70
2023-06-11T01:28:39.608Z,19.60
2023-06-11T01:31:13.258Z,19.60
2023-06-11T01:33:40.491Z,19.60
2023-06-11T01:36:07.240Z,19.60
2023-06-11T01:38:42.490Z,19.60
2023-06-11T01:41:13.338Z,19.60
2023-06-11T01:43:40.171Z,19.60
2023-06-11T01:46:07.321Z,19.50
2023-06-11T01:48:34.380Z,19.50
2023-06-11T01:51:01.231Z,19.50
2023-06-11T01:53:28.034Z,19.30
2023-06-11T01:55:58.052Z,19.30
2023-06-11T01:58:24.997Z,19.30
2023-06-11T02:00:51.835Z,19.20
2023-06-11T02:03:19.106Z,19.20
2023-06-11T02:05:45.915Z,19.20
2023-06-11T02:08:12.730Z,19.20
2023-06-11T02:10:39.369Z,19.20
2023-06-11T02:13:06.018Z,19.10
2023-06-11T02:15:32.674Z,19.20
2023-06-11T02:17:59.421Z,19.10
2023-06-11T02:20:26.134Z,19.00
2023-06-11T02:22:52.788Z,19.00
2023-06-11T02:25:19.567Z,19.00
2023-06-11T02:27:46.240Z,19.00
2023-06-11T02:30:13.652Z,18.90
2023-06-11T02:32:41.360Z,19.00
2023-06-11T02:35:09.266Z,19.00
2023-06-11T02:37:36.335Z,19.00
2023-06-11T02:40:03.265Z,19.00
2023-06-11T02:42:29.951Z,19.00
2023-06-11T02:44:56.604Z,18.90
2023-06-11T02:47:23.463Z,18.80
2023-06-11T02:49:50.385Z,18.90
2023-06-11T02:52:16.994Z,18.80
2023-06-11T02:54:43.586Z,18.80
2023-06-11T02:57:10.994Z,18.70
2023-06-11T02:59:37.578Z,18.70
2023-06-11T03:02:04.230Z,18.80
2023-06-11T03:04:31.064Z,18.80
2023-06-11T03:06:57.744Z,18.80
2023-06-11T03:09:25.293Z,18.80
2023-06-11T03:11:54.733Z,18.80
2023-06-11T03:14:22.360Z,18.70
2023-06-11T03:16:49.045Z,18.80
2023-06-11T03:19:15.718Z,18.80
2023-06-11T03:21:42.603Z,18.80
2023-06-11T03:24:09.469Z,18.80
2023-06-11T03:26:36.122Z,18.80
2023-06-11T03:29:03.310Z,18.80
2023-06-11T03:31:30.110Z,18.70
2023-06-11T03:33:56.720Z,18.80
2023-06-11T03:36:23.512Z,18.70
2023-06-11T03:38:50.172Z,18.70
2023-06-11T03:41:17.328Z,18.70
2023-06-11T03:43:44.010Z,18.70
2023-06-11T03:46:10.619Z,18.80
2023-06-11T03:48:37.463Z,18.80
2023-06-11T03:51:04.241Z,18.90
2023-06-11T03:53:31.480Z,18.90
2023-06-11T03:55:58.158Z,18.90
2023-06-11T03:58:24.926Z,18.80
2023-06-11T04:00:51.586Z,18.90
2023-06-11T04:03:18.292Z,18.80
2023-06-11T04:05:44.953Z,18.80
2023-06-11T04:08:11.669Z,18.80
2023-06-11T04:10:38.415Z,18.80
2023-06-11T04:13:05.032Z,18.80
2023-06-11T04:15:32.465Z,18.90
2023-06-11T04:17:59.183Z,18.90
2023-06-11T04:20:25.749Z,18.90
2023-06-11T04:22:52.474Z,19.00
2023-06-11T04:25:19.126Z,19.00
2023-06-11T04:27:48.063Z,19.10
2023-06-11T04:30:16.773Z,19.10
2023-06-11T04:32:43.488Z,19.10
2023-06-11T04:35:13.684Z,19.10
2023-06-11T04:37:42.475Z,19.10
2023-06-11T04:40:12.149Z,19.20
2023-06-11T04:42:42.108Z,19.30
2023-06-11T04:45:12.389Z,19.30
2023-06-11T04:47:39.704Z,19.30
2023-06-11T04:50:08.112Z,19.30
2023-06-11T04:52:38.627Z,19.30
2023-06-11T04:55:06.238Z,19.40
2023-06-11T04:57:35.818Z,19.40
2023-06-11T05:00:09.826Z,19.40
2023-06-11T05:02:38.517Z,19.50
2023-06-11T05:05:06.407Z,19.60
2023-06-11T05:07:33.434Z,19.50
2023-06-11T05:10:01.097Z,19.50
2023-06-11T05:12:27.744Z,19.50
2023-06-11T05:14:54.893Z,19.60
2023-06-11T05:17:21.968Z,19.70
2023-06-11T05:19:48.810Z,19.70
2023-06-11T05:22:16.527Z,19.80
2023-06-11T05:24:44.149Z,19.80
2023-06-11T05:27:10.974Z,19.90
2023-06-11T05:29:39.858Z,19.90
2023-06-11T05:32:09.702Z,20.00
2023-06-11T05:34:38.496Z,20.10
2023-06-11T05:37:05.344Z,20.20
2023-06-11T05:39:32.572Z,20.30
2023-06-11T05:41:59.621Z,20.40
2023-06-11T05:44:26.352Z,20.40
2023-06-11T05:46:53.130Z,20.50
2023-06-11T05:49:19.977Z,20.60
2023-06-11T05:51:46.665Z,20.70
2023-06-11T05:54:13.299Z,20.80
2023-06-11T05:56:39.954Z,20.90
2023-06-11T05:59:06.683Z,21.00
2023-06-11T06:01:34.378Z,21.10
2023-06-11T06:04:01.291Z,21.30
2023-06-11T06:06:28.666Z,21.40
2023-06-11T06:08:55.676Z,21.60
2023-06-11T06:11:22.493Z,21.70
2023-06-11T06:13:49.432Z,21.80
2023-06-11T06:16:16.285Z,21.90
2023-06-11T06:18:45.295Z,22.10
2023-06-11T06:21:11.987Z,22.20
2023-06-11T06:23:38.684Z,22.30
2023-06-11T06:26:05.485Z,22.50
2023-06-11T06:28:35.326Z,22.60
2023-06-11T06:31:04.077Z,22.80
2023-06-11T06:33:35.220Z,22.90
2023-06-11T06:36:03.873Z,23.00
2023-06-11T06:38:31.519Z,23.20
2023-06-11T06:40:58.230Z,23.40
2023-06-11T06:43:24.840Z,23.50
2023-06-11T06:45:51.447Z,23.70
2023-06-11T06:48:19.287Z,23.80
2023-06-11T06:50:46.116Z,24.00
2023-06-11T06:53:12.829Z,24.30
2023-06-11T06:55:39.524Z,24.50
2023-06-11T06:58:06.344Z,24.70
2023-06-11T07:00:33.220Z,25.00
2023-06-11T07:02:59.843Z,25.10
2023-06-11T07:05:26.454Z,25.40
2023-06-11T07:07:53.148Z,25.50
2023-06-11T07:10:20.268Z,25.70
2023-06-11T07:12:46.929Z,26.00
2023-06-11T07:15:13.592Z,26.30
2023-06-11T07:17:40.380Z,26.80
2023-06-11T07:20:11.212Z,27.10
2023-06-11T07:22:38.635Z,27.60
2023-06-11T07:25:07.796Z,28.00
2023-06-11T07:27:34.586Z,29.10
2023-06-11T07:30:01.271Z,29.80
2023-06-11T07:32:28.081Z,30.50
2023-06-11T07:34:54.675Z,31.10
2023-06-11T07:37:21.641Z,31.20
2023-06-11T07:39:49.373Z,31.60
2023-06-11T07:42:16.284Z,32.10
2023-06-11T07:44:43.049Z,32.20
2023-06-11T07:47:09.675Z,32.90
2023-06-11T07:49:36.618Z,33.50
2023-06-11T07:52:03.493Z,33.50
2023-06-11T07:54:30.184Z,33.70
2023-06-11T07:56:56.819Z,33.50
2023-06-11T07:59:23.594Z,33.10
2023-06-11T08:01:50.694Z,32.90
2023-06-11T08:04:17.462Z,32.80
2023-06-11T08:06:45.090Z,32.50
2023-06-11T08:09:11.807Z,32.20
2023-06-11T08:11:38.646Z,31.80
2023-06-11T08:14:05.400Z,32.00
2023-06-11T08:16:32.761Z,32.50
2023-06-11T08:18:59.947Z,33.60
2023-06-11T08:21:26.656Z,35.10
2023-06-11T08:23:53.853Z,36.20
2023-06-11T08:26:20.890Z,37.90
2023-06-11T08:28:47.952Z,39.20
2023-06-11T08:31:15.840Z,40.10
2023-06-11T08:33:42.715Z,40.50
2023-06-11T08:36:09.358Z,40.60
2023-06-11T08:38:38.801Z,39.80
2023-06-11T08:41:06.044Z,38.80
2023-06-11T08:43:32.759Z,39.30
2023-06-11T08:45:59.455Z,39.80
2023-06-11T08:48:31.144Z,39.70
2023-06-11T08:51:02.722Z,39.50
2023-06-11T08:53:29.574Z,39.70
2023-06-11T08:55:56.646Z,39.70
2023-06-11T08:58:24.900Z,39.80
2023-06-11T09:00:51.633Z,40.70
2023-06-11T09:03:19.023Z,41.10
2023-06-11T09:05:47.235Z,41.50
2023-06-11T09:08:13.987Z,42.30
2023-06-11T09:10:51.525Z,42.10
2023-06-11T09:13:19.005Z,40.40
2023-06-11T09:15:59.236Z,39.20
2023-06-11T09:18:27.692Z,38.80
2023-06-11T09:20:57.440Z,39.20
2023-06-11T09:23:27.704Z,39.30
2023-06-11T09:25:57.214Z,38.80
2023-06-11T09:28:31.787Z,38.20
2023-06-11T09:30:59.380Z,38.10
2023-06-11T09:33:28.789Z,38.70
2023-06-11T09:35:56.068Z,38.90
2023-06-11T09:38:22.941Z,39.40
2023-06-11T09:40:57.523Z,40.20
2023-06-11T09:43:25.204Z,40.80
2023-06-11T09:45:56.889Z,40.60
2023-06-11T09:48:25.070Z,40.30
2023-06-11T09:50:54.308Z,40.70
2023-06-11T09:53:23.130Z,40.50
2023-06-11T09:56:05.390Z,40.80
2023-06-11T09:58:39.800Z,41.40
2023-06-11T10:01:07.807Z,41.60
2023-06-11T10:03:35.002Z,42.50
2023-06-11T10:06:10.843Z,43.30
2023-06-11T10:08:38.171Z,42.50
2023-06-11T10:11:05.305Z,41.80
2023-06-11T10:13:34.312Z,41.80
2023-06-11T10:16:02.463Z,42.00
2023-06-11T10:18:31.245Z,42.80
2023-06-11T10:21:02.966Z,43.60
2023-06-11T10:23:41.453Z,42.70
2023-06-11T10:26:10.606Z,42.10
2023-06-11T10:28:49.822Z,41.20
2023-06-11T10:31:30.834Z,40.20
2023-06-11T10:34:06.811Z,40.90
2023-06-11T10:36:38.823Z,39.90
2023-06-11T10:39:10.133Z,40.10
2023-06-11T10:41:44.457Z,40.30
2023-06-11T10:44:11.797Z,39.70
2023-06-11T10:46:53.003Z,38.10
2023-06-11T10:49:24.291Z,36.50
2023-06-11T10:51:52.437Z,35.40
2023-06-11T10:54:26.766Z,35.30
2023-06-11T10:56:54.815Z,36.20
2023-06-11T10:59:21.976Z,37.30
2023-06-11T11:01:52.581Z,37.20
2023-06-11T11:04:19.533Z,37.00
2023-06-11T11:06:46.347Z,36.90
2023-06-11T11:09:13.096Z,37.90
2023-06-11T11:11:40.549Z,38.70
2023-06-11T11:14:07.257Z,40.00
2023-06-11T11:16:34.084Z,41.20
2023-06-11T11:19:00.984Z,41.70
2023-06-11T11:21:30.544Z,41.90
2023-06-11T11:23:57.261Z,42.70
2023-06-11T11:26:23.978Z,42.80
2023-06-11T11:28:50.906Z,41.30
2023-06-11T11:31:21.119Z,41.00
2023-06-11T11:33:48.537Z,40.00
2023-06-11T11:36:15.226Z,40.50
2023-06-11T11:38:41.847Z,40.20
2023-06-11T11:41:12.739Z,39.60
2023-06-11T11:43:43.608Z,39.50
2023-06-11T11:46:26.396Z,39.80
2023-06-11T11:48:58.955Z,40.20
2023-06-11T11:51:26.569Z,40.80
2023-06-11T11:53:53.607Z,41.10
2023-06-11T11:56:20.260Z,40.50
2023-06-11T11:58:47.135Z,40.40
2023-06-11T12:01:27.654Z,40.00
2023-06-11T12:04:02.613Z,38.80
2023-06-11T12:06:31.347Z,37.40
2023-06-11T12:08:58.288Z,36.20
2023-06-11T12:11:25.403Z,35.30
2023-06-11T12:13:52.098Z,35.10
2023-06-11T12:16:21.932Z,34.60
2023-06-11T12:18:49.653Z,34.00
2023-06-11T12:21:16.365Z,33.50
2023-06-11T12:23:43.097Z,33.30
2023-06-11T12:26:09.764Z,32.70
2023-06-11T12:28:36.458Z,32.70
2023-06-11T12:31:03.147Z,32.70
2023-06-11T12:33:30.667Z,32.70
2023-06-11T12:35:57.354Z,32.50
2023-06-11T12:38:24.056Z,32.40
2023-06-11T12:40:50.746Z,32.30
2023-06-11T12:43:17.585Z,32.10
2023-06-11T12:45:44.278Z,31.90
2023-06-11T12:48:11.075Z,32.10
2023-06-11T12:50:38.107Z,32.00
2023-06-11T12:53:05.926Z,31.80
2023-06-11T12:55:32.588Z,32.00
2023-06-11T12:57:59.295Z,31.80
2023-06-11T13:00:27.872Z,31.90
2023-06-11T13:02:54.664Z,31.60
2023-06-11T13:05:22.594Z,31.50
2023-06-11T13:07:49.914Z,31.50
2023-06-11T13:10:16.947Z,31.50
2023-06-11T13:12:43.788Z,31.60
2023-06-11T13:15:11.350Z,31.90
2023-06-11T13:17:38.002Z,32.10
2023-06-11T13:20:05.091Z,32.30
2023-06-11T13:22:31.902Z,32.40
2023-06-11T13:24:59.334Z,32.50
2023-06-11T13:27:26.936Z,32.50
2023-06-11T13:29:53.716Z,32.50
2023-06-11T13:32:20.950Z,32.10
2023-06-11T13:34:47.760Z,31.70
2023-06-11T13:37:14.690Z,31.30
2023-06-11T13:39:41.709Z,31.30
2023-06-11T13:42:08.706Z,31.40
2023-06-11T13:44:35.440Z,31.40
2023-06-11T13:47:02.619Z,31.40
2023-06-11T13:49:29.339Z,31.50
2023-06-11T13:51:56.084Z,31.80
2023-06-11T13:54:24.941Z,31.90
2023-06-11T13:56:51.632Z,31.80
2023-06-11T13:59:20.753Z,31.60
2023-06-11T14:01:47.525Z,31.60
2023-06-11T14:04:14.214Z,31.60
2023-06-11T14:06:40.912Z,31.60
2023-06-11T14:09:07.700Z,31.20
2023-06-11T14:11:34.549Z,31.10
2023-06-11T14:14:01.413Z,31.10
2023-06-11T14:16:28.936Z,31.20
2023-06-11T14:18:55.694Z,31.30
2023-06-11T14:21:22.440Z,31.30
2023-06-11T14:23:49.306Z,31.30
2023-06-11T14:26:16.043Z,31.40
2023-06-11T14:28:42.707Z,31.50
2023-06-11T14:31:09.398Z,31.60
2023-06-11T14:33:36.171Z,31.60
2023-06-11T14:36:06.054Z,31.70
2023-06-11T14:38:33.859Z,31.60
2023-06-11T14:41:00.822Z,31.60
2023-06-11T14:43:27.487Z,31.40
2023-06-11T14:45:54.365Z,31.10
2023-06-11T14:48:21.206Z,30.80
2023-06-11T14:50:47.938Z,30.80
2023-06-11T14:53:14.594Z,30.70
2023-06-11T14:55:41.275Z,30.80
2023-06-11T14:58:07.895Z,30.80
2023-06-11T15:00:34.628Z,30.90
2023-06-11T15:03:01.297Z,30.70
2023-06-11T15:05:28.018Z,30.60
2023-06-11T15:07:54.629Z,30.60
2023-06-11T15:10:21.338Z,30.70
2023-06-11T15:12:47.909Z,30.70
2023-06-11T15:15:15.183Z,30.80
2023-06-11T15:17:41.877Z,30.70
2023-06-11T15:20:09.066Z,30.60
2023-06-11T15:22:38.532Z,30.50
2023-06-11T15:25:05.588Z,30.50
2023-06-11T15:27:32.253Z,30.60
2023-06-11T15:29:59.233Z,30.60
2023-06-11T15:32:26.038Z,30.60
2023-06-11T15:34:52.794Z,30.60
2023-06-11T15:37:20.184Z,30.50
2023-06-11T15:39:51.195Z,30.50
2023-06-11T15:42:19.034Z,30.50
2023-06-11T15:44:46.718Z,30.50
2023-06-11T15:47:13.368Z,30.50
2023-06-11T15:49:40.064Z,30.50
2023-06-11T15:52:07.157Z,30.50
2023-06-11T15:54:34.005Z,30.40
2023-06-11T15:57:01.717Z,30.30
2023-06-11T15:59:28.462Z,30.30
2023-06-11T16:01:55.289Z,30.30
2023-06-11T16:04:24.217Z,30.30
2023-06-11T16:06:51.070Z,30.20
2023-06-11T16:09:17.741Z,30.20
2023-06-11T16:11:44.453Z,30.10
2023-06-11T16:14:11.164Z,30.10
2023-06-11T16:16:37.861Z,30.10
2023-06-11T16:19:04.644Z,30.00
2023-06-11T16:21:31.387Z,29.90
2023-06-11T16:23:58.155Z,29.80
2023-06-11T16:26:25.890Z,29.70
2023-06-11T16:28:53.672Z,29.70
2023-06-11T16:31:20.547Z,29.60
2023-06-11T16:33:57.239Z,29.70
2023-06-11T16:36:25.602Z,29.60
2023-06-11T16:38:52.374Z,29.60
2023-06-11T16:41:19.055Z,29.40
2023-06-11T16:43:45.688Z,29.40
2023-06-11T16:46:12.366Z,29.40
2023-06-11T16:48:39.146Z,29.40
2023-06-11T16:51:05.821Z,29.40
2023-06-11T16:53:32.440Z,29.40
2023-06-11T16:55:59.119Z,29.40
2023-06-11T16:58:26.186Z,29.30
2023-06-11T17:00:55.057Z,29.30
2023-06-11T17:03:21.750Z,29.30
2023-06-11T17:05:48.720Z,29.20
2023-06-11T17:08:15.541Z,29.10
2023-06-11T17:10:42.236Z,29.10
2023-06-11T17:13:08.970Z,29.00
2023-06-11T17:15:35.922Z,29.00
2023-06-11T17:18:02.782Z,28.90
2023-06-11T17:20:29.528Z,28.80
2023-06-11T17:22:56.233Z,28.80
2023-06-11T17:25:24.426Z,28.70
2023-06-11T17:27:51.346Z,28.60
2023-06-11T17:30:18.306Z,28.60
2023-06-11T17:32:45.165Z,28.50
2023-06-11T17:35:12.200Z,28.40
2023-06-11T17:37:39.117Z,28.30
2023-06-11T17:40:07.098Z,28.20
2023-06-11T17:42:33.986Z,28.20
2023-06-11T17:45:00.895Z,28.10
2023-06-11T17:47:27.678Z,28.00
2023-06-11T17:49:54.366Z,28.00
2023-06-11T17:52:21.065Z,27.90
2023-06-11T17:54:47.885Z,27.80
2023-06-11T17:57:14.521Z,27.70
2023-06-11T17:59:41.225Z,27.70
2023-06-11T18:02:07.922Z,27.60
2023-06-11T18:04:34.962Z,27.50
2023-06-11T18:07:01.679Z,27.40
2023-06-11T18:09:28.432Z,27.40
2023-06-11T18:11:55.263Z,27.30
2023-06-11T18:14:25.240Z,27.20
2023-06-11T18:16:53.307Z,27.20
2023-06-11T18:19:20.586Z,27.10
2023-06-11T18:21:47.530Z,26.90
2023-06-11T18:24:15.070Z,26.80
2023-06-11T18:26:41.812Z,26.80
2023-06-11T18:29:08.664Z,26.70
2023-06-11T18:31:35.870Z,26.60
2023-06-11T18:34:02.549Z,26.50
2023-06-11T18:36:29.260Z,26.40
2023-06-11T18:38:57.557Z,26.30
2023-06-11T18:41:24.277Z,26.20
2023-06-11T18:43:50.888Z,26.10
2023-06-11T18:46:18.012Z,26.00
2023-06-11T18:48:44.857Z,25.90
2023-06-11T18:51:11.624Z,25.80
2023-06-11T18:53:38.337Z,25.70
2023-06-11T18:56:05.772Z,25.50
2023-06-11T18:58:33.899Z,25.40
2023-06-11T19:01:00.739Z,25.30
2023-06-11T19:03:27.510Z,25.30
2023-06-11T19:05:54.151Z,25.10
2023-06-11T19:08:20.785Z,25.00
2023-06-11T19:10:48.460Z,25.00
2023-06-11T19:13:17.366Z,24.90
2023-06-11T19:15:44.943Z,24.80
2023-06-11T19:18:13.258Z,24.70
2023-06-11T19:20:40.362Z,24.60
2023-06-11T19:23:08.279Z,24.40
2023-06-11T19:25:35.386Z,24.30
2023-06-11T19:28:02.390Z,24.20
2023-06-11T19:30:29.135Z,24.20
2023-06-11T19:32:56.019Z,24.10
2023-06-11T19:35:22.726Z,24.00
2023-06-11T19:37:50.163Z,23.90
2023-06-11T19:40:16.828Z,23.90
2023-06-11T19:42:43.475Z,23.80
2023-06-11T19:45:11.068Z,23.70
2023-06-11T19:47:39.293Z,23.60
2023-06-11T19:50:06.726Z,23.50
2023-06-11T19:52:33.529Z,23.40
2023-06-11T19:55:01.095Z,23.30
2023-06-11T19:57:27.688Z,23.30
2023-06-11T19:59:54.531Z,23.30
2023-06-11T20:02:21.413Z,23.20
2023-06-11T20:04:48.204Z,23.10
2023-06-11T20:07:16.858Z,23.00
2023-06-11T20:09:43.519Z,23.00
2023-06-11T20:12:11.513Z,22.90
2023-06-11T20:14:38.444Z,22.80
2023-06-11T20:17:05.769Z,22.70
2023-06-11T20:19:34.904Z,22.70
2023-06-11T20:22:01.684Z,22.60
2023-06-11T20:24:28.487Z,22.50
2023-06-11T20:26:55.381Z,22.40
2023-06-11T20:29:23.982Z,22.30
2023-06-11T20:31:51.381Z,22.30
2023-06-11T20:34:18.209Z,22.20
2023-06-11T20:36:44.991Z,22.10
2023-06-11T20:39:12.204Z,22.10
2023-06-11T20:41:38.898Z,22.00
2023-06-11T20:44:05.687Z,21.90
2023-06-11T20:46:32.615Z,21.90
2023-06-11T20:48:59.415Z,21.80
2023-06-11T20:51:26.325Z,21.80
2023-06-11T20:53:52.950Z,21.80
2023-06-11T20:56:22.988Z,21.70
2023-06-11T20:58:49.886Z,21.70
2023-06-11T21:01:16.918Z,21.60
2023-06-11T21:03:44.903Z,21.60
2023-06-11T21:06:11.604Z,21.60
2023-06-11T21:08:38.201Z,21.50
2023-06-11T21:11:04.796Z,21.50
2023-06-11T21:13:31.412Z,21.60
2023-06-11T21:15:58.120Z,21.50
2023-06-11T21:18:25.497Z,21.50
2023-06-11T21:20:52.216Z,21.50
2023-06-11T21:23:20.341Z,21.40
2023-06-11T21:25:47.049Z,21.40
2023-06-11T21:28:13.767Z,21.30
2023-06-11T21:30:40.563Z,21.30
2023-06-11T21:33:07.287Z,21.30
2023-06-11T21:35:33.946Z,21.20
2023-06-11T21:38:00.651Z,21.10
2023-06-11T21:40:27.220Z,21.10
2023-06-11T21:42:53.838Z,21.10
2023-06-11T21:45:20.627Z,21.10
2023-06-11T21:47:47.277Z,21.00
2023-06-11T21:50:14.487Z,21.00
2023-06-11T21:52:42.151Z,21.00
2023-06-11T21:55:08.999Z,21.00
2023-06-11T21:57:35.759Z,20.90
2023-06-11T22:00:11.964Z,20.90
2023-06-11T22:02:42.879Z,20.80
2023-06-11T22:05:10.676Z,20.80
2023-06-11T22:07:37.549Z,20.70
2023-06-11T22:10:05.056Z,20.70
2023-06-11T22:12:41.115Z,20.70
2023-06-11T22:15:09.523Z,20.70
2023-06-11T22:17:38.142Z,20.70
2023-06-11T22:20:09.161Z,20.80
2023-06-11T22:22:40.309Z,20.70
2023-06-11T22:25:11.924Z,20.70
2023-06-11T22:27:40.806Z,20.70
2023-06-11T22:30:09.228Z,20.70
2023-06-11T22:32:36.049Z,20.60
2023-06-11T22:35:02.814Z,20.60
2023-06-11T22:37:29.687Z,20.50
2023-06-11T22:39:56.677Z,20.40
2023-06-11T22:42:23.713Z,20.30
2023-06-11T22:44:50.260Z,20.30
2023-06-11T22:47:17.396Z,20.20
2023-06-11T22:49:44.029Z,20.20
2023-06-11T22:52:10.723Z,20.20
2023-06-11T22:54:39.455Z,20.20
2023-06-11T22:57:07.561Z,20.20
2023-06-11T22:59:34.587Z,20.10
2023-06-11T23:02:01.279Z,20.00
2023-06-11T23:04:27.982Z,20.00
2023-06-11T23:06:55.633Z,20.00
2023-06-11T23:09:22.352Z,19.90
2023-06-11T23:11:48.940Z,20.00
2023-06-11T23:14:16.828Z,20.00
2023-06-11T23:16:48.687Z,20.00
2023-06-11T23:19:23.725Z,20.00
2023-06-11T23:21:51.853Z,20.00
2023-06-11T23:24:18.975Z,19.90
2023-06-11T23:26:46.205Z,19.90
2023-06-11T23:29:13.570Z,19.90
2023-06-11T23:31:40.664Z,19.90
2023-06-11T23:34:09.840Z,19.80
2023-06-11T23:36:40.498Z,19.70
2023-06-11T23:39:09.068Z,19.60
2023-06-11T23:41:36.202Z,19.60
2023-06-11T23:44:03.106Z,19.60
2023-06-11T23:46:29.824Z,19.60
2023-06-11T23:48:56.572Z,19.60
2023-06-11T23:51:23.338Z,19.60
2023-06-11T23:53:49.975Z,19.60
2023-06-11T23:56:16.686Z,19.60
2023-06-11T23:58:43.644Z,19.50
